Time;durP1;ratioP1;P1;durP2;ratioP2;P2;SDS_P1;SDS_P2;PMS_P1;PMS_P2;Temp;Humidity;BMP_temperature;BMP_pressure;BME280_temperature;BME280_humidity;BME280_pressure;Samples;Min_cycle;Max_cycle;Signal;HPM_P1;HPM_P2
2022/05/27 00:01:37;;;;;;;;;;;;;;;-144.99;100.00;52356.38;4975243;28;19940;-76
2022/05/27 00:04:04;;;;;;;;;;;;;;;-144.99;100.00;52325.81;4995004;28;19950;-76
2022/05/27 00:06:32;;;;;;;;;;;;;;;-144.99;100.00;52346.19;4990321;28;20060;-75
2022/05/27 00:08:58;;;;;;;;;;;;;;;-144.99;100.00;52325.81;4985804;28;20018;-76
2022/05/27 00:11:25;;;;;;;;;;;;;;;-144.99;100.00;52305.41;4975936;28;19944;-73
2022/05/27 00:13:52;;;;;;;;;;;;;;;-144.99;100.00;52317.66;4984900;28;19965;-75
2022/05/27 00:16:18;;;;;;;;;;;;;;;-144.99;100.00;52264.66;4984356;28;19948;-77
2022/05/27 00:18:45;;;;;;;;;;;;;;;-144.99;100.00;52342.09;4970732;28;19942;-76
2022/05/27 00:21:11;;;;;;;;;;;;;;;-144.99;100.00;52346.19;4979228;28;19951;-77
2022/05/27 00:23:40;;;;;;;;;;;;;;;-144.99;100.00;52346.19;4988958;28;19949;-78
2022/05/27 00:26:06;;;;;;;;;;;;;;;-144.99;100.00;52338.03;4986760;28;19960;-77
2022/05/27 00:28:33;;;;;;;;;;;;;;;-144.99;100.00;52358.41;4982535;28;19943;-77
2022/05/27 00:30:59;;;;;;;;;;;;;;;-144.99;100.00;52342.09;4983804;28;19946;-78
2022/05/27 00:33:26;;;;;;;;;;;;;;;-144.99;100.00;52293.19;4976739;28;19946;-76
2022/05/27 00:35:52;;;;;;;;;;;;;;;-144.99;100.00;52350.25;4981693;28;19964;-78
2022/05/27 00:38:19;;;;;;;;;;;;;;;-144.99;100.00;52317.66;4975567;28;19956;-77
2022/05/27 00:40:47;;;;;;;;;;;;;;;-144.99;100.00;52342.09;4979955;28;19940;-74
2022/05/27 00:43:14;;;;;;;;;;;;;;;-144.99;100.00;52313.56;4980849;28;20444;-75
2022/05/27 00:45:42;;;;;;;;;;;;;;;-144.99;100.00;52305.41;4984664;28;19934;-73
2022/05/27 00:48:12;;;;;;;;;;;;;;;-144.99;100.00;52321.72;4988105;28;19963;-76
2022/05/27 00:50:41;;;;;;;;;;;;;;;-144.99;100.00;52354.34;4977753;28;19937;-76
2022/05/27 00:53:08;;;;;;;;;;;;;;;-144.99;100.00;52327.84;4977544;28;19976;-76
2022/05/27 00:55:37;;;;;;;;;;;;;;;-144.99;100.00;52362.50;4976636;28;19967;-75
2022/05/27 00:58:08;;;;;;;;;;;;;;;-144.99;100.00;52354.34;4981068;28;19953;-75
2022/05/27 01:00:35;;;;;;;;;;;;;;;-144.99;100.00;52319.69;4974954;28;20380;-75
2022/05/27 01:03:02;;;;;;;;;;;;;;;-144.99;100.00;52344.16;4980152;28;19941;-76
2022/05/27 01:05:28;;;;;;;;;;;;;;;-144.99;100.00;52315.59;4977316;28;19973;-76
2022/05/27 01:07:57;;;;;;;;;;;;;;;-144.99;100.00;52340.06;4979276;28;20015;-75
2022/05/27 01:10:24;;;;;;;;;;;;;;;-144.99;100.00;52329.88;4973551;28;19954;-76
2022/05/27 01:12:59;;;;;;;;;;;;;;;-144.99;100.00;52338.03;4975453;28;19970;-76
2022/05/27 01:15:37;;;;;;;;;;;;;;;-144.99;100.00;52342.09;4981691;28;20015;-75
2022/05/27 01:18:13;;;;;;;;;;;;;;;-144.99;100.00;52350.25;4976641;28;19930;-75
2022/05/27 01:20:44;;;;;;;;;;;;;;;-144.99;100.00;52325.81;4974326;28;20457;-74
2022/05/27 01:23:31;;;;;;;;;;;;;;;-144.99;100.00;52366.56;4983369;28;19949;-76
2022/05/27 01:26:21;;;;;;;;;;;;;;;-144.99;100.00;52325.81;4970555;28;19973;-75
2022/05/27 01:28:51;;;;;;;;;;;;;;;-144.99;100.00;52309.50;4987196;28;19934;-77
2022/05/27 01:31:25;;;;;;;;;;;;;;;-144.99;100.00;52313.56;4986022;28;20401;-75
2022/05/27 01:34:03;;;;;;;;;;;;;;;-144.99;100.00;52370.63;4978534;28;19971;-77
2022/05/27 01:36:38;;;;;;;;;;;;;;;-144.99;100.00;52333.94;4978621;28;19968;-74
2022/05/27 01:39:10;;;;;;;;;;;;;;;-144.99;100.00;52374.72;4978947;28;19964;-75
2022/05/27 01:41:43;;;;;;;;;;;;;;;-144.99;100.00;52333.94;4979697;28;19940;-73
2022/05/27 01:44:13;;;;;;;;;;;;;;;-144.99;100.00;52321.72;4984189;28;19933;-75
2022/05/27 01:46:42;;;;;;;;;;;;;;;-144.99;100.00;52317.66;4982593;28;19964;-75
2022/05/27 01:49:12;;;;;;;;;;;;;;;-144.99;100.00;52340.06;4985551;28;20171;-76
2022/05/27 01:51:41;;;;;;;;;;;;;;;-144.99;100.00;52346.19;4981521;28;19944;-74
2022/05/27 01:54:11;;;;;;;;;;;;;;;-144.99;100.00;52374.72;4976890;28;19926;-75
2022/05/27 01:56:40;;;;;;;;;;;;;;;-144.99;100.00;52325.81;4980322;28;20380;-73
2022/05/27 01:59:09;;;;;;;;;;;;;;;-144.99;100.00;52309.50;4977612;28;19952;-76
2022/05/27 02:01:37;;;;;;;;;;;;;;;-144.99;100.00;52374.72;4977983;28;19930;-75
2022/05/27 02:04:07;;;;;;;;;;;;;;;-144.99;100.00;52342.09;4984649;28;19929;-76
2022/05/27 02:06:38;;;;;;;;;;;;;;;-144.99;100.00;52329.88;4980477;28;19976;-75
2022/05/27 02:09:08;;;;;;;;;;;;;;;-144.99;100.00;52358.41;4980184;28;20004;-76
2022/05/27 02:11:35;;;;;;;;;;;;;;;-144.99;100.00;52329.88;4977465;28;19953;-76
2022/05/27 02:14:03;;;;;;;;;;;;;;;-144.99;100.00;52370.63;4988367;28;19930;-76
2022/05/27 02:16:33;;;;;;;;;;;;;;;-144.99;100.00;52360.44;4979692;28;19940;-76
2022/05/27 02:19:02;;;;;;;;;;;;;;;-144.99;100.00;52344.16;4976848;28;20416;-75
2022/05/27 02:21:33;;;;;;;;;;;;;;;-144.99;100.00;52358.41;4977906;28;20093;-73
2022/05/27 02:24:02;;;;;;;;;;;;;;;-144.99;100.00;52354.34;4987552;28;20356;-73
2022/05/27 02:26:31;;;;;;;;;;;;;;;-144.99;100.00;52342.09;4983352;28;19926;-73
2022/05/27 02:29:00;;;;;;;;;;;;;;;-144.99;100.00;52342.09;4986639;28;19926;-74
2022/05/27 02:31:29;;;;;;;;;;;;;;;-144.99;100.00;52364.53;4981240;28;19959;-74
2022/05/27 02:36:44;;;;;;;;;;;;;;;-144.99;100.00;52399.19;4980156;28;19936;-73
2022/05/27 02:39:11;;;;;;;;;;;;;;;-144.99;100.00;52362.50;4981074;28;20007;-73
2022/05/27 02:41:44;;;;;;;;;;;;;;;-144.99;100.00;52403.25;4985838;28;19933;-73
2022/05/27 02:44:18;;;;;;;;;;;;;;;-144.99;100.00;52376.75;4980730;28;19941;-74
2022/05/27 02:46:49;;;;;;;;;;;;;;;-144.99;100.00;52382.88;4989105;28;20004;-76
2022/05/27 02:49:21;;;;;;;;;;;;;;;-144.99;99.25;52366.56;4633781;28;10000514;-76
2022/05/27 02:51:54;;;;;;;;;;;;;;;-144.99;98.56;52399.19;4987078;28;20379;-77
2022/05/27 02:54:24;;;;;;;;;;;;;;;-144.99;98.18;52395.09;5000558;28;19936;-80
2022/05/27 02:56:53;;;;;;;;;;;;;;;-144.99;98.04;52384.91;4993780;28;19936;-78
2022/05/27 02:59:20;;;;;;;;;;;;;;;-144.99;98.10;52333.94;4987320;28;19926;-78
2022/05/27 03:01:47;;;;;;;;;;;;;;;-144.99;98.14;52374.72;4989413;28;19948;-78
2022/05/27 03:04:13;;;;;;;;;;;;;;;-144.99;98.01;52382.88;4991556;28;19949;-78
2022/05/27 03:06:46;;;;;;;;;;;;;;;-144.99;98.15;52382.88;4988448;28;19960;-78
2022/05/27 03:11:59;;;;;;;;;;;;;;;-144.99;97.37;52391.03;4922338;29;19941;-75
2022/05/27 03:14:40;;;;;;;;;;;;;;;-144.99;97.16;52366.56;4932948;29;20291;-75
2022/05/27 03:17:15;;;;;;;;;;;;;;;-144.99;96.85;52374.72;4936655;29;19974;-75
2022/05/27 03:19:50;;;;;;;;;;;;;;;-144.99;96.91;52346.19;4939586;29;19986;-74
2022/05/27 03:22:21;;;;;;;;;;;;;;;-144.99;96.23;52386.94;4935844;29;19951;-75
2022/05/27 03:24:53;;;;;;;;;;;;;;;-144.99;96.12;52407.31;4933544;29;19956;-75
2022/05/27 03:27:26;;;;;;;;;;;;;;;-144.99;96.19;52325.81;4931354;29;19958;-75
2022/05/27 03:29:54;;;;;;;;;;;;;;;-144.99;96.45;52370.63;4938801;29;19970;-74
2022/05/27 03:32:25;;;;;;;;;;;;;;;-144.99;96.40;52382.88;4939176;29;19957;-75
2022/05/27 03:34:53;;;;;;;;;;;;;;;-144.99;95.94;52370.63;4941941;29;19946;-74
2022/05/27 03:37:22;;;;;;;;;;;;;;;-144.99;95.83;52384.91;4937422;29;19999;-74
2022/05/27 03:39:52;;;;;;;;;;;;;;;-144.99;96.10;52378.78;4935659;29;19984;-74
2022/05/27 03:42:19;;;;;;;;;;;;;;;-144.99;95.12;52376.75;4945597;29;19954;-74
2022/05/27 03:44:51;;;;;;;;;;;;;;;-144.99;94.58;52395.09;4942430;29;19945;-73
2022/05/27 03:47:18;;;;;;;;;;;;;;;-144.99;94.85;52374.72;4938193;29;20064;-76
2022/05/27 03:49:44;;;;;;;;;;;;;;;-144.99;94.71;52395.09;4942439;29;19966;-76
2022/05/27 03:52:14;;;;;;;;;;;;;;;-144.99;94.88;52384.91;4935776;29;20360;-73
2022/05/27 03:54:40;;;;;;;;;;;;;;;-144.99;95.49;52415.47;4934191;29;19949;-73
2022/05/27 03:57:06;;;;;;;;;;;;;;;-144.99;94.99;52378.78;4936907;29;20152;-73
2022/05/27 03:59:33;;;;;;;;;;;;;;;-144.99;94.47;52374.72;4936407;29;19958;-72
2022/05/27 04:02:00;;;;;;;;;;;;;;;-144.99;94.08;52374.72;4934558;29;19947;-72
2022/05/27 04:04:28;;;;;;;;;;;;;;;-144.99;93.74;52374.72;4932676;29;19960;-74
2022/05/27 04:06:54;;;;;;;;;;;;;;;-144.99;93.61;52358.41;4931740;29;19954;-72
2022/05/27 04:09:22;;;;;;;;;;;;;;;-144.99;93.55;52382.88;4935682;29;19949;-73
2022/05/27 04:11:48;;;;;;;;;;;;;;;-144.99;93.38;52370.63;4944793;29;19973;-73
2022/05/27 04:14:15;;;;;;;;;;;;;;;-144.99;92.56;52395.09;4930232;29;20338;-73
2022/05/27 04:16:41;;;;;;;;;;;;;;;-144.99;92.10;52350.25;4939191;29;19958;-73
2022/05/27 04:19:09;;;;;;;;;;;;;;;-144.99;91.37;52423.63;4950182;29;19947;-72
2022/05/27 04:21:36;;;;;;;;;;;;;;;-144.99;91.11;52374.72;4951214;29;19966;-72
2022/05/27 04:24:03;;;;;;;;;;;;;;;-144.99;90.73;52399.19;4953953;29;20341;-72
2022/05/27 04:26:29;;;;;;;;;;;;;;;-144.99;90.39;52407.31;4947506;29;19951;-73
2022/05/27 04:28:56;;;;;;;;;;;;;;;-144.99;89.15;52391.03;4945060;29;20015;-71
2022/05/27 04:31:22;;;;;;;;;;;;;;;-144.99;88.42;52393.06;4952337;29;20027;-72
2022/05/27 04:33:48;;;;;;;;;;;;;;;-144.99;87.88;52391.03;4954136;29;19987;-73
2022/05/27 04:36:16;;;;;;;;;;;;;;;-144.99;86.56;52395.09;4949256;29;20039;-73
2022/05/27 04:38:43;;;;;;;;;;;;;;;-144.99;84.51;52370.63;4950416;29;20011;-72
2022/05/27 04:41:09;;;;;;;;;;;;;;;-144.99;84.32;52395.09;4943897;29;19993;-75
2022/05/27 04:43:35;;;;;;;;;;;;;;;-144.99;83.02;52431.78;4952435;29;19967;-76
2022/05/27 04:46:02;;;;;;;;;;;;;;;-144.99;81.49;52350.25;4956321;29;19965;-76
2022/05/27 04:48:28;;;;;;;;;;;;;;;-144.99;80.54;52372.69;4948001;29;19973;-75
2022/05/27 04:50:55;;;;;;;;;;;;;;;-144.99;79.97;52403.25;4939897;29;20353;-75
2022/05/27 04:53:22;;;;;;;;;;;;;;;-144.99;79.47;52386.94;4933215;29;19959;-75
2022/05/27 04:55:50;;;;;;;;;;;;;;;-144.99;78.70;52378.78;4952840;29;19965;-72
2022/05/27 04:58:16;;;;;;;;;;;;;;;-144.99;77.23;52386.94;4957186;29;20377;-73
2022/05/27 05:00:44;;;;;;;;;;;;;;;-144.99;77.00;52407.31;4959649;29;19963;-72
2022/05/27 05:03:11;;;;;;;;;;;;;;;-144.99;76.47;52399.19;4968335;28;19956;-73
2022/05/27 05:05:38;;;;;;;;;;;;;;;-144.99;75.20;52401.22;4960292;29;20026;-73
2022/05/27 05:08:05;;;;;;;;;;;;;;;-144.99;74.96;52391.03;4960900;29;19967;-73
2022/05/27 05:10:34;;;;;;;;;;;;;;;-144.99;74.50;52395.09;4970724;29;19973;-75
2022/05/27 05:13:00;;;;;;;;;;;;;;;-144.99;74.11;52391.03;4966049;28;19979;-74
2022/05/27 05:15:27;;;;;;;;;;;;;;;-144.99;74.02;52391.03;4961313;29;20154;-75
2022/05/27 05:17:54;;;;;;;;;;;;;;;-144.99;73.16;52382.88;4961552;28;19933;-76
2022/05/27 05:20:24;;;;;;;;;;;;;;;-144.99;72.35;52386.94;4967826;28;19915;-76
2022/05/27 05:22:50;;;;;;;;;;;;;;;-144.99;72.15;52372.69;4967954;29;19945;-74
2022/05/27 05:25:17;;;;;;;;;;;;;;;-144.99;72.10;52370.63;4958831;29;19954;-73
2022/05/27 05:27:44;;;;;;;;;;;;;;;-144.99;71.72;52391.03;4964882;28;20138;-75
2022/05/27 05:30:12;;;;;;;;;;;;;;;-144.99;71.18;52386.94;4970623;29;19964;-74
2022/05/27 05:32:39;;;;;;;;;;;;;;;-144.99;70.95;52391.03;4966955;29;19933;-75
2022/05/27 05:35:06;;;;;;;;;;;;;;;-144.99;70.51;52382.88;4966861;29;19954;-76
2022/05/27 05:37:32;;;;;;;;;;;;;;;-144.99;70.35;52338.03;4958591;29;19974;-76
2022/05/27 05:39:58;;;;;;;;;;;;;;;-144.99;71.07;52342.09;4962437;29;20038;-77
2022/05/27 05:42:25;;;;;;;;;;;;;;;-144.99;71.39;52352.28;4973296;29;19927;-74
2022/05/27 05:44:52;;;;;;;;;;;;;;;-144.99;70.55;52378.78;4961505;29;19952;-74
2022/05/27 05:47:19;;;;;;;;;;;;;;;-144.99;70.30;52393.06;4961362;29;19955;-74
2022/05/27 05:49:45;;;;;;;;;;;;;;;-144.99;69.45;52419.56;4967418;29;19974;-74
2022/05/27 05:52:11;;;;;;;;;;;;;;;-144.99;69.13;52338.03;4959469;29;19958;-74
2022/05/27 05:54:38;;;;;;;;;;;;;;;-144.99;69.43;52372.69;4965859;29;19941;-75
2022/05/27 05:57:04;;;;;;;;;;;;;;;-144.99;69.46;52342.09;4965901;29;19951;-75
2022/05/27 05:59:32;;;;;;;;;;;;;;;-144.99;68.28;52372.69;4961098;29;19937;-75
2022/05/27 06:02:00;;;;;;;;;;;;;;;-144.99;67.68;52374.72;4959899;29;19943;-76
2022/05/27 06:04:27;;;;;;;;;;;;;;;-144.99;67.47;52382.88;4960554;28;19986;-78
2022/05/27 06:06:53;;;;;;;;;;;;;;;-144.99;67.99;52333.94;4960406;28;19935;-77
2022/05/27 06:09:22;;;;;;;;;;;;;;;-144.99;66.98;52333.94;4957682;28;19970;-76
2022/05/27 06:11:49;;;;;;;;;;;;;;;-144.99;66.09;52331.91;4962281;28;19979;-77
2022/05/27 06:14:15;;;;;;;;;;;;;;;-144.99;66.25;52350.25;4962119;28;19994;-77
2022/05/27 06:16:41;;;;;;;;;;;;;;;-144.99;66.41;52368.59;4967598;28;19951;-77
2022/05/27 06:19:09;;;;;;;;;;;;;;;-144.99;65.94;52395.09;4956688;29;19963;-76
2022/05/27 06:21:35;;;;;;;;;;;;;;;-144.99;65.72;52372.69;4959538;29;19961;-77
2022/05/27 06:24:03;;;;;;;;;;;;;;;-144.99;65.09;52342.09;4956175;29;19951;-76
2022/05/27 06:26:29;;;;;;;;;;;;;;;-144.99;65.25;52409.38;4957026;29;19949;-76
2022/05/27 06:34:26;;;;;;;;;;;;;;;-144.99;61.61;52317.66;4966082;29;20464;-74
2022/05/27 06:36:54;;;;;;;;;;;;;;;-144.99;61.22;52382.88;4954788;29;20195;-74
2022/05/27 06:39:21;;;;;;;;;;;;;;;-144.99;61.07;52386.94;4956169;29;19966;-74
2022/05/27 06:41:47;;;;;;;;;;;;;;;-144.99;61.08;52372.69;4961297;28;19984;-74
2022/05/27 06:44:13;;;;;;;;;;;;;;;-144.99;60.86;52391.03;4960558;29;19964;-74
2022/05/27 06:46:40;;;;;;;;;;;;;;;-144.99;60.16;52415.47;4961129;29;19940;-74
2022/05/27 06:49:07;;;;;;;;;;;;;;;-144.99;60.74;52376.75;4955770;29;20340;-74
2022/05/27 06:51:36;;;;;;;;;;;;;;;-144.99;60.79;52346.19;4955198;29;19968;-74
2022/05/27 06:54:02;;;;;;;;;;;;;;;-144.99;60.93;52370.63;4960826;29;19939;-74
2022/05/27 06:56:29;;;;;;;;;;;;;;;-144.99;58.99;52411.41;4966620;29;19964;-75
2022/05/27 06:58:55;;;;;;;;;;;;;;;-144.99;58.56;52354.34;4959043;29;19973;-75
2022/05/27 07:01:21;;;;;;;;;;;;;;;-144.99;57.89;52382.88;4953223;29;19993;-74
2022/05/27 07:03:48;;;;;;;;;;;;;;;-144.99;57.28;52329.88;4955323;29;19985;-73
2022/05/27 07:06:14;;;;;;;;;;;;;;;-144.99;58.35;52338.03;4955723;29;20016;-74
2022/05/27 07:08:42;;;;;;;;;;;;;;;-144.99;55.61;52350.25;4962484;29;20335;-73
2022/05/27 07:11:08;;;;;;;;;;;;;;;-144.99;54.11;52378.78;4939136;29;19996;-72
2022/05/27 07:13:35;;;;;;;;;;;;;;;-144.99;53.65;52368.59;4935842;29;19978;-73
2022/05/27 07:16:01;;;;;;;;;;;;;;;-144.99;54.66;52325.81;4943162;29;20436;-73
2022/05/27 07:18:27;;;;;;;;;;;;;;;-144.99;53.63;52333.94;4949732;29;19975;-74
2022/05/27 07:20:59;;;;;;;;;;;;;;;-144.99;53.49;52350.25;4938109;29;19984;-73
2022/05/27 07:23:25;;;;;;;;;;;;;;;-144.99;52.28;52338.03;4942937;29;19956;-73
2022/05/27 07:25:54;;;;;;;;;;;;;;;-144.99;51.85;52321.72;4934931;29;20059;-73
2022/05/27 07:28:22;;;;;;;;;;;;;;;-144.99;50.61;52370.63;4934216;29;19996;-73
2022/05/27 07:30:48;;;;;;;;;;;;;;;-144.99;51.12;52342.09;4931024;29;19998;-73
2022/05/27 07:33:15;;;;;;;;;;;;;;;-144.99;51.82;52321.72;4932262;29;19989;-73
2022/05/27 07:35:41;;;;;;;;;;;;;;;-144.99;52.19;52325.81;4929224;29;19978;-73
2022/05/27 07:38:08;;;;;;;;;;;;;;;-144.99;50.98;52354.34;4936260;29;19973;-73
2022/05/27 07:40:34;;;;;;;;;;;;;;;-144.99;49.04;52338.03;4930624;29;19993;-73
2022/05/27 07:43:02;;;;;;;;;;;;;;;-144.99;49.19;52311.53;4933154;29;19982;-74
2022/05/27 07:45:29;;;;;;;;;;;;;;;-144.99;50.07;52350.25;4932430;29;19977;-74
2022/05/27 07:47:56;;;;;;;;;;;;;;;-144.99;49.18;52354.34;4937932;29;20413;-73
2022/05/27 07:50:22;;;;;;;;;;;;;;;-144.99;47.74;52364.53;4931233;29;20391;-73
2022/05/27 07:52:49;;;;;;;;;;;;;;;-144.99;47.80;52342.09;4931679;29;19983;-73
2022/05/27 07:55:16;;;;;;;;;;;;;;;-144.99;47.06;52415.47;4929930;29;19983;-74
2022/05/27 07:57:43;;;;;;;;;;;;;;;-144.99;46.76;52346.19;4932753;29;19982;-73
2022/05/27 08:00:13;;;;;;;;;;;;;;;-144.99;50.25;52346.19;4927688;29;19999;-74
2022/05/27 08:02:39;;;;;;;;;;;;;;;-144.99;55.31;52358.41;4927414;29;19986;-73
2022/05/27 08:05:07;;;;;;;;;;;;;;;-144.99;55.88;52325.81;4939197;29;19984;-74
2022/05/27 08:07:33;;;;;;;;;;;;;;;-144.99;56.54;52358.41;4938528;29;20457;-74
2022/05/27 08:10:00;;;;;;;;;;;;;;;-144.99;56.65;52331.91;4939349;29;20009;-73
2022/05/27 08:12:26;;;;;;;;;;;;;;;-144.99;57.00;52309.50;4930316;29;19989;-74
2022/05/27 08:14:52;;;;;;;;;;;;;;;-144.99;56.00;52366.56;4938513;29;19982;-74
2022/05/27 08:17:20;;;;;;;;;;;;;;;-144.99;54.86;52321.72;4938258;29;20441;-73
2022/05/27 08:19:46;;;;;;;;;;;;;;;-144.99;55.88;52342.09;4935264;29;20005;-75
2022/05/27 08:22:13;;;;;;;;;;;;;;;-144.99;55.57;52321.72;4934360;29;19975;-74
2022/05/27 08:24:39;;;;;;;;;;;;;;;-144.99;54.29;52297.25;4937953;29;19976;-76
2022/05/27 08:27:08;;;;;;;;;;;;;;;-144.99;54.74;52321.72;4941491;29;19978;-74
2022/05/27 08:29:34;;;;;;;;;;;;;;;-144.99;52.17;52309.50;4943374;29;19986;-73
2022/05/27 08:32:03;;;;;;;;;;;;;;;-144.99;51.21;52293.19;4931488;29;19964;-75
2022/05/27 08:40:01;;;;;;;;;;;;;;;-144.99;44.91;52313.56;4935566;29;20001;-74
2022/05/27 08:42:32;;;;;;;;;;;;;;;-144.99;44.91;52313.56;4938992;29;20452;-74
2022/05/27 08:45:04;;;;;;;;;;;;;;;-144.99;44.50;52342.09;4937626;29;19989;-74
2022/05/27 08:47:33;;;;;;;;;;;;;;;-144.99;44.65;52317.66;4933158;29;19973;-74
2022/05/27 08:50:07;;;;;;;;;;;;;;;-144.99;44.87;52348.22;4932801;29;20002;-74
2022/05/27 08:52:37;;;;;;;;;;;;;;;-144.99;44.95;52321.72;4929852;29;19977;-73
2022/05/27 08:55:05;;;;;;;;;;;;;;;-144.99;44.63;52329.88;4940181;29;20070;-74
2022/05/27 09:00:17;;;;;;;;;;;;;;;-144.99;44.48;52289.13;4930321;29;20374;-74
2022/05/27 09:02:46;;;;;;;;;;;;;;;-144.99;44.38;52309.50;4932731;29;20362;-74
2022/05/27 09:05:17;;;;;;;;;;;;;;;-144.99;43.78;52325.81;4934016;29;19961;-72
2022/05/27 09:07:47;;;;;;;;;;;;;;;-144.99;44.26;52305.41;4944487;29;20288;-74
2022/05/27 09:13:02;;;;;;;;;;;;;;;-144.99;45.12;52321.72;4931423;29;20117;-79
2022/05/27 09:15:33;;;;;;;;;;;;;;;-144.99;45.46;52325.81;4944744;29;19979;-78
2022/05/27 09:18:05;;;;;;;;;;;;;;;-144.99;44.51;52366.56;4927850;29;19968;-79
2022/05/27 09:20:39;;;;;;;;;;;;;;;-144.99;45.00;52309.50;4928929;29;20234;-79
2022/05/27 09:23:14;;;;;;;;;;;;;;;-144.99;45.48;52313.56;4930330;29;19969;-78
2022/05/27 09:25:46;;;;;;;;;;;;;;;-144.99;45.91;52291.16;4932678;29;19952;-80
2022/05/27 09:28:18;;;;;;;;;;;;;;;-144.99;45.95;52276.88;4932628;29;20264;-80
2022/05/27 09:30:44;;;;;;;;;;;;;;;-144.99;46.31;52313.56;4928371;29;20465;-78
2022/05/27 09:33:13;;;;;;;;;;;;;;;-144.99;49.71;52333.94;4935657;29;19978;-79
2022/05/27 09:35:43;;;;;;;;;;;;;;;-144.99;55.71;52333.94;4934346;29;20328;-78
2022/05/27 09:38:13;;;;;;;;;;;;;;;-144.99;58.46;52366.56;4933387;29;19953;-78
2022/05/27 09:40:46;;;;;;;;;;;;;;;-144.99;61.19;52325.81;4924822;29;19967;-79
2022/05/27 09:43:15;;;;;;;;;;;;;;;-144.99;61.15;52329.88;4926676;29;19979;-77
2022/05/27 09:45:43;;;;;;;;;;;;;;;-144.99;59.87;52301.34;4930684;29;20140;-75
2022/05/27 09:48:10;;;;;;;;;;;;;;;-144.99;59.90;52285.03;4930618;29;19974;-77
2022/05/27 09:50:39;;;;;;;;;;;;;;;-144.99;57.43;52289.13;4929591;29;19980;-74
2022/05/27 09:53:08;;;;;;;;;;;;;;;-144.99;53.82;52321.72;4929481;29;20409;-77
2022/05/27 09:55:38;;;;;;;;;;;;;;;-144.99;51.52;52329.88;4929409;29;19969;-77
2022/05/27 09:58:06;;;;;;;;;;;;;;;-144.99;48.95;52333.94;4930732;29;20334;-76
2022/05/27 10:00:39;;;;;;;;;;;;;;;-144.99;50.48;52358.41;4928187;29;19977;-77
2022/05/27 10:03:23;;;;;;;;;;;;;;;-144.99;55.50;52321.72;4929848;29;19967;-75
2022/05/27 10:05:53;;;;;;;;;;;;;;;-144.99;57.39;52362.50;4258827;29;10000738;-77
2022/05/27 10:08:28;;;;;;;;;;;;;;;-144.99;57.34;52354.34;4931346;29;20393;-78
2022/05/27 10:11:06;;;;;;;;;;;;;;;-144.99;57.39;52362.50;4923956;29;19992;-79
2022/05/27 10:13:34;;;;;;;;;;;;;;;-144.99;57.39;52317.66;4940950;29;19984;-79
2022/05/27 10:16:03;;;;;;;;;;;;;;;-144.99;56.81;52325.81;4926015;29;20024;-78
2022/05/27 10:18:29;;;;;;;;;;;;;;;-144.99;57.18;52321.72;4922066;29;20002;-77
2022/05/27 10:20:59;;;;;;;;;;;;;;;-144.99;54.03;52264.66;4929956;29;20008;-78
2022/05/27 10:23:26;;;;;;;;;;;;;;;-144.99;51.19;52293.19;4929926;29;20022;-78
2022/05/27 10:25:54;;;;;;;;;;;;;;;-144.99;49.78;52336.00;4931351;29;19979;-76
2022/05/27 10:28:25;;;;;;;;;;;;;;;-144.99;50.93;52374.72;4929369;29;20326;-75
2022/05/27 10:30:53;;;;;;;;;;;;;;;-144.99;54.74;52342.09;4923837;29;19996;-78
2022/05/27 10:33:21;;;;;;;;;;;;;;;-144.99;58.92;52370.63;4929330;29;20001;-78
2022/05/27 10:35:47;;;;;;;;;;;;;;;-144.99;63.02;52362.50;4943085;29;19978;-75
2022/05/27 10:38:23;;;;;;;;;;;;;;;-144.99;63.63;52325.81;4946770;28;19957;-74
2022/05/27 10:40:53;;;;;;;;;;;;;;;-144.99;63.84;52336.00;4928233;29;20286;-77
2022/05/27 10:43:44;;;;;;;;;;;;;;;-144.99;63.20;52315.59;4929076;29;20084;-78
2022/05/27 10:46:15;;;;;;;;;;;;;;;-144.99;60.83;52297.25;4926542;29;20153;-77
2022/05/27 10:48:51;;;;;;;;;;;;;;;-144.99;60.46;52285.03;4932654;29;19958;-78
2022/05/27 10:51:24;;;;;;;;;;;;;;;-144.99;57.91;52248.34;4925867;29;20225;-78
2022/05/27 10:54:00;;;;;;;;;;;;;;;-144.99;57.41;52240.19;4915176;29;19973;-76
2022/05/27 10:56:35;;;;;;;;;;;;;;;-144.99;53.92;52268.72;4919451;29;20034;-79
2022/05/27 11:02:07;;;;;;;;;;;;;;;-144.99;57.60;52329.88;4919144;29;20012;-78
2022/05/27 11:04:46;;;;;;;;;;;;;;;-144.99;60.27;52350.25;4921644;29;19990;-77
2022/05/27 11:07:18;;;;;;;;;;;;;;;-144.99;65.05;52374.72;4928151;29;20059;-75
2022/05/27 11:09:50;;;;;;;;;;;;;;;-144.99;67.77;52370.63;4929438;29;19986;-77
2022/05/27 11:12:23;;;;;;;;;;;;;;;-144.99;71.30;52358.41;4920088;29;20060;-77
2022/05/27 11:15:13;;;;;;;;;;;;;;;-144.99;74.97;52313.56;4917618;29;20206;-77
2022/05/27 11:17:47;;;;;;;;;;;;;;;-144.99;76.89;52272.81;4948265;28;19979;-76
2022/05/27 11:20:24;;;;;;;;;;;;;;;-144.99;72.35;52256.50;4924679;29;19977;-79
2022/05/27 11:22:54;;;;;;;;;;;;;;;-144.99;70.33;52276.88;4927751;29;19992;-78
2022/05/27 11:25:26;;;;;;;;;;;;;;;-144.99;63.32;52272.81;4924313;29;19986;-77
2022/05/27 11:28:10;;;;;;;;;;;;;;;-144.99;62.40;52244.28;4921998;29;20371;-78
2022/05/27 11:30:46;;;;;;;;;;;;;;;-144.99;58.08;52256.50;4925568;29;20001;-79
2022/05/27 11:33:21;;;;;;;;;;;;;;;-144.99;57.22;52301.34;4927202;29;19978;-77
2022/05/27 11:35:56;;;;;;;;;;;;;;;-144.99;57.85;52236.13;4925477;29;20364;-79
2022/05/27 11:38:31;;;;;;;;;;;;;;;-144.99;57.05;52272.81;4922608;29;19973;-77
2022/05/27 11:41:04;;;;;;;;;;;;;;;-144.99;57.21;52276.88;4925844;29;19992;-80
2022/05/27 11:43:44;;;;;;;;;;;;;;;-144.99;55.50;52276.88;4925527;29;20046;-79
2022/05/27 11:46:22;;;;;;;;;;;;;;;-144.99;55.35;52309.50;4924490;29;20061;-79
2022/05/27 11:48:53;;;;;;;;;;;;;;;-144.99;53.98;52285.03;4917874;29;20442;-78
2022/05/27 11:51:33;;;;;;;;;;;;;;;-144.99;53.15;52234.09;4921408;29;19998;-75
2022/05/27 11:54:08;;;;;;;;;;;;;;;-144.99;52.41;52319.69;4928263;29;19979;-77
2022/05/27 11:56:41;;;;;;;;;;;;;;;-144.99;51.41;52317.66;4927208;29;20036;-80
2022/05/27 11:59:11;;;;;;;;;;;;;;;-144.99;51.89;52276.88;4945000;28;20344;-79
2022/05/27 12:01:41;;;;;;;;;;;;;;;-144.99;50.79;52268.72;4931908;29;20057;-80
2022/05/27 12:04:12;;;;;;;;;;;;;;;-144.99;49.38;52238.16;4928624;29;19977;-79
2022/05/27 12:06:42;;;;;;;;;;;;;;;-144.99;48.29;52297.25;4930178;29;20043;-77
2022/05/27 12:09:10;;;;;;;;;;;;;;;-144.99;48.69;52305.41;4929205;29;20272;-78
2022/05/27 12:11:39;;;;;;;;;;;;;;;-144.99;51.00;52331.91;4918423;29;20514;-76
2022/05/27 12:14:07;;;;;;;;;;;;;;;-144.99;47.05;52227.97;4923857;29;19983;-78
2022/05/27 12:16:37;;;;;;;;;;;;;;;-144.99;47.71;52240.19;4932980;29;19976;-78
2022/05/27 12:19:08;;;;;;;;;;;;;;;-144.99;46.25;52280.97;4934494;29;19967;-77
2022/05/27 12:21:45;;;;;;;;;;;;;;;-144.99;47.02;52305.41;4942855;29;19933;-78
2022/05/27 12:24:18;;;;;;;;;;;;;;;-144.99;47.21;52297.25;4937837;29;20324;-80
2022/05/27 12:26:45;;;;;;;;;;;;;;;-144.99;45.36;52211.66;4929705;29;19972;-80
2022/05/27 12:29:13;;;;;;;;;;;;;;;-144.99;45.18;52232.03;4933869;29;20060;-78
2022/05/27 12:31:40;;;;;;;;;;;;;;;-144.99;45.28;52264.66;4930939;29;19980;-76
2022/05/27 12:34:25;;;;;;;;;;;;;;;-144.99;44.67;52223.88;4952826;28;20257;-81
2022/05/27 12:36:53;;;;;;;;;;;;;;;-144.99;43.37;52219.81;4948982;28;19945;-78
2022/05/27 12:39:23;;;;;;;;;;;;;;;-144.99;44.06;52270.78;4955829;28;19971;-80
2022/05/27 12:41:50;;;;;;;;;;;;;;;-144.99;45.08;52280.97;4952378;28;19964;-81
2022/05/27 12:44:26;;;;;;;;;;;;;;;-144.99;46.18;52315.59;4953449;28;20000;-80
2022/05/27 12:46:55;;;;;;;;;;;;;;;-144.99;46.68;52244.28;4949448;28;19958;-78
2022/05/27 12:49:32;;;;;;;;;;;;;;;-144.99;45.83;52301.34;4946265;28;19980;-78
2022/05/27 12:52:00;;;;;;;;;;;;;;;-144.99;46.08;52272.81;4945298;28;19968;-80
2022/05/27 12:54:46;;;;;;;;;;;;;;;-144.99;46.22;52319.69;4949063;28;20148;-79
2022/05/27 13:03:26;;;;;;;;;;;;;;;-144.99;46.68;52285.03;4907336;29;19951;-79
2022/05/27 13:06:05;;;;;;;;;;;;;;;-144.99;47.44;52301.34;4944751;28;19953;-80
2022/05/27 13:08:34;;;;;;;;;;;;;;;-144.99;47.59;52313.56;4948817;28;19967;-80